createdAt,value
2023-05-06T00:14:35.595Z,338
2023-05-06T00:34:35.323Z,328
2023-05-06T00:54:35.507Z,335
2023-05-06T01:14:34.986Z,351
2023-05-06T01:34:35.466Z,338
2023-05-06T02:14:35.412Z,330
2023-05-06T02:34:35.415Z,330
2023-05-06T02:54:35.385Z,328
2023-05-06T03:14:35.359Z,334
2023-05-06T03:34:35.314Z,329
2023-05-06T03:54:35.321Z,317
2023-05-06T04:14:34.802Z,319
2023-05-06T04:34:35.251Z,327
2023-05-06T04:54:35.225Z,336
2023-05-06T05:14:35.227Z,326
2023-05-06T05:34:35.198Z,332
2023-05-06T05:54:34.688Z,316
2023-05-06T06:14:34.642Z,309
2023-05-06T06:34:35.134Z,341
2023-05-06T06:54:35.124Z,345
2023-05-06T07:14:35.070Z,350
2023-05-06T07:34:35.044Z,337
2023-05-06T07:54:35.018Z,337
2023-05-06T08:14:35.010Z,328
2023-05-06T08:34:34.460Z,324
2023-05-06T08:54:34.951Z,298
2023-05-06T09:14:34.916Z,296
2023-05-06T09:34:34.399Z,306
2023-05-06T09:54:34.871Z,310
2023-05-06T10:14:34.852Z,312
2023-05-06T10:34:34.811Z,289
2023-05-06T10:54:34.753Z,300
2023-05-06T11:14:34.777Z,299
2023-05-06T11:34:34.709Z,294
2023-05-06T11:54:34.707Z,303
2023-05-06T12:14:34.657Z,312
2023-05-06T12:34:34.683Z,306
2023-05-06T12:54:34.592Z,314
2023-05-06T13:14:35.249Z,308
2023-05-06T13:34:34.554Z,299
2023-05-06T13:54:34.524Z,304
2023-05-06T14:14:34.490Z,317
2023-05-06T14:34:34.477Z,317
2023-05-06T14:54:34.433Z,299
2023-05-06T15:14:34.393Z,310
2023-05-06T15:34:34.372Z,311
2023-05-06T15:54:37.140Z,302
2023-05-06T16:14:34.329Z,329
2023-05-06T16:34:34.294Z,314
2023-05-06T16:54:34.250Z,319
2023-05-06T17:14:34.220Z,322
2023-05-06T17:34:35.323Z,322
2023-05-06T17:54:34.159Z,328
2023-05-06T18:14:33.636Z,328
2023-05-06T18:34:34.210Z,332
2023-05-06T18:54:34.068Z,337
2023-05-06T19:14:34.075Z,333
2023-05-06T19:34:34.042Z,319
2023-05-06T19:54:34.006Z,319
2023-05-06T20:14:33.992Z,330
2023-05-06T20:34:33.941Z,326
2023-05-06T20:54:33.932Z,327
2023-05-06T21:34:33.865Z,331
2023-05-06T21:54:33.327Z,307
2023-05-06T22:14:40.801Z,325
2023-05-06T22:34:33.795Z,318
2023-05-06T22:54:33.773Z,313
2023-05-06T23:14:33.749Z,319
2023-05-06T23:34:33.726Z,317
2023-05-06T23:54:33.680Z,319
